Briefing drone pour Aurec-sur-loire

Rechercher une autre localisation

Conditions de vol :


Nous sommes le : Lundi 25 octobre 2021
Il est 03:41 UTC (05:41 LT)

Lever de soleil : 05:46 UTC (07:46 LT)
Coucher de soleil : 17:07 UTC (19:07 LT)


Warning: min(): Array must contain at least one element in /homepages/6/d509196549/htdocs/briefdrone/includes/function/metar/metar.php on line 1265

Météo

L'essentiel des conditions de vol

VIGILANCE MÉTÉO FRANCE - Haute-Loire (43)
Pas de vigilances particulieres
CARTE TEMSI
CARTES DES FRONTS
METAR de LFMH
LFMH 250330Z AUTO 16003KT 9999 NCD 06/06 Q1022

Date d'émission: 25/10/2021
Heure d'émission: 03:30 UTC
Vent: 160° pour 3 KT (6 km/h)
Visibilité horizontale: > 10 km
Température: 6 °C
Point de rosée: 6 °C
Humidité: 100%
Pression (QNH): 1022 hPa
TAF de LFMH
LFMH 161901Z 1619/1712 CNL

Conditions prévues :

Heure d'émission : Bulletin éffectué le 16 à 19:00 UTC
Prévision : Valide du 16 a 19:00 UTC au 17 a 12:00 UTC
Nuages : à 0ft (0 m)
WEBCAM POUR AUREC-SUR-LOIRE

Réglementation

Voler en sécurité

CARTES AERONAUTIQUE 1/500.000
CARTES VAC (LFMH)
SUP AIP




Chargement des AIP...
NOTAM (AUREC-SUR-LOIRE + Terrain à proximité / FIR )




Chargement des NOTAMS...
CONTACT PREFECTURE 43


Avertissement : Les données mises à disposition sont indicatives. Oxygène Drone ne pourra être tenu responsable de dégâts causés aux biens et aux personnes.